createdAt,value
2023-01-10T00:00:14.513Z,97563.84
2023-01-10T00:02:41.283Z,97391.34
2023-01-10T00:05:08.270Z,97699.31
2023-01-10T00:07:35.002Z,97639.06
2023-01-10T00:10:01.637Z,97613.97
2023-01-10T00:12:28.295Z,97659.16
2023-01-10T00:14:54.988Z,97611.19
2023-01-10T00:17:21.696Z,97562.44
2023-01-10T00:19:48.314Z,97589.97
2023-01-10T00:22:15.066Z,97577.75
2023-01-10T00:24:41.692Z,97335.53
2023-01-10T00:27:08.394Z,97668.34
2023-01-10T00:29:35.127Z,97608.50
2023-01-10T00:32:01.882Z,97599.75
2023-01-10T00:34:28.497Z,97406.00
2023-01-10T00:36:55.559Z,97637.97
2023-01-10T00:39:22.106Z,97630.16
2023-01-10T00:41:48.867Z,97652.50
2023-01-10T00:44:15.517Z,97440.19
2023-01-10T00:46:42.215Z,97734.72
2023-01-10T00:49:08.830Z,97645.00
2023-01-10T00:51:35.547Z,97604.19
2023-01-10T00:54:02.235Z,97635.84
2023-01-10T00:56:29.082Z,97659.00
2023-01-10T00:58:55.910Z,97638.25
2023-01-10T01:01:22.670Z,97730.66
2023-01-10T01:03:49.347Z,97671.44
2023-01-10T01:06:16.349Z,97648.56
2023-01-10T01:08:42.944Z,97666.66
2023-01-10T01:11:09.639Z,97637.00
2023-01-10T01:13:36.476Z,97716.94
2023-01-10T01:16:03.429Z,97598.66
2023-01-10T01:18:30.087Z,97733.44
2023-01-10T01:20:58.225Z,97783.19
2023-01-10T01:23:24.841Z,97800.97
2023-01-10T01:25:53.277Z,97724.59
2023-01-10T01:28:20.511Z,97444.63
2023-01-10T01:30:47.866Z,97799.94
2023-01-10T01:33:16.211Z,97714.66
2023-01-10T01:35:44.088Z,97776.19
2023-01-10T01:38:11.197Z,97825.19
2023-01-10T01:40:38.258Z,97791.88
2023-01-10T01:43:26.889Z,97752.53
2023-01-10T01:45:54.125Z,97838.44
2023-01-10T01:48:23.822Z,97850.69
2023-01-10T01:50:55.809Z,97854.94
2023-01-10T01:53:31.292Z,97863.28
2023-01-10T01:56:07.245Z,97820.94
2023-01-10T01:58:58.786Z,97776.22
2023-01-10T02:01:27.944Z,97805.28
2023-01-10T02:04:03.099Z,97803.66
2023-01-10T02:06:30.594Z,97589.56
2023-01-10T02:09:08.644Z,97788.13
2023-01-10T02:11:35.356Z,97887.25
2023-01-10T02:14:05.705Z,97878.28
2023-01-10T02:16:32.324Z,97827.16
2023-01-10T02:18:59.399Z,97545.09
2023-01-10T02:21:35.175Z,97883.38
2023-01-10T02:24:17.183Z,97887.44
2023-01-10T02:27:06.657Z,97895.28
2023-01-10T02:29:42.237Z,97908.84
2023-01-10T02:32:23.520Z,97907.44
2023-01-10T02:35:09.915Z,97804.81
2023-01-10T02:38:07.594Z,97924.97
2023-01-10T02:41:01.535Z,97822.03
2023-01-10T02:43:34.229Z,97892.78
2023-01-10T02:46:17.041Z,97930.06
2023-01-10T02:48:43.809Z,97841.78
2023-01-10T02:51:19.495Z,97848.00
2023-01-10T02:53:56.237Z,97802.91
2023-01-10T02:56:26.011Z,97952.63
2023-01-10T02:58:58.879Z,97959.81
2023-01-10T03:01:52.502Z,97962.22
2023-01-10T03:04:28.390Z,97969.56
2023-01-10T03:07:07.559Z,97903.91
2023-01-10T03:09:52.432Z,97966.66
2023-01-10T03:12:28.395Z,97978.09
2023-01-10T03:14:57.316Z,97898.34
2023-01-10T03:17:26.102Z,97812.31
2023-01-10T03:19:59.089Z,97895.56
2023-01-10T03:22:28.311Z,97889.84
2023-01-10T03:24:58.545Z,97961.38
2023-01-10T03:27:36.311Z,97908.28
2023-01-10T03:30:12.403Z,98000.59
2023-01-10T03:32:39.287Z,97892.41
2023-01-10T03:35:06.880Z,97970.81
2023-01-10T03:37:57.188Z,97960.22
2023-01-10T03:40:56.874Z,98036.16
2023-01-10T03:43:29.672Z,97909.06
2023-01-10T03:46:08.447Z,98010.00
2023-01-10T03:48:39.579Z,98044.56
2023-01-10T03:51:08.335Z,97993.13
2023-01-10T03:53:38.164Z,98072.75
2023-01-10T03:56:05.691Z,98001.53
2023-01-10T03:58:32.359Z,97952.13
2023-01-10T04:00:59.310Z,98032.34
2023-01-10T04:03:26.056Z,98027.38
2023-01-10T04:05:52.759Z,97984.66
2023-01-10T04:08:19.349Z,98053.31
2023-01-10T04:10:49.065Z,98061.28
2023-01-10T04:13:15.644Z,98026.03
2023-01-10T04:15:42.340Z,97831.56
2023-01-10T04:18:09.015Z,98117.66
2023-01-10T04:20:35.681Z,98012.09
2023-01-10T04:23:02.325Z,98021.75
2023-01-10T04:25:29.216Z,98093.13
2023-01-10T04:27:55.824Z,98092.00
2023-01-10T04:30:22.550Z,98075.50
2023-01-10T04:32:49.227Z,97977.63
2023-01-10T04:35:15.941Z,98054.66
2023-01-10T04:37:43.138Z,98110.97
2023-01-10T04:40:10.595Z,98061.66
2023-01-10T04:42:37.338Z,98061.91
2023-01-10T04:45:04.675Z,98117.16
2023-01-10T04:47:31.319Z,98024.06
2023-01-10T04:49:57.989Z,98109.72
2023-01-10T04:52:24.645Z,98111.63
2023-01-10T04:54:51.716Z,97927.50
2023-01-10T04:57:18.319Z,98096.91
2023-01-10T04:59:45.155Z,98168.66
2023-01-10T05:02:11.832Z,98120.47
2023-01-10T05:04:38.528Z,97929.75
2023-01-10T05:07:05.172Z,98089.69
2023-01-10T05:09:31.986Z,98094.84
2023-01-10T05:11:58.592Z,98145.91
2023-01-10T05:14:25.215Z,98102.38
2023-01-10T05:16:51.852Z,98111.22
2023-01-10T05:19:18.610Z,98178.03
2023-01-10T05:21:45.186Z,98117.38
2023-01-10T05:24:11.997Z,98173.59
2023-01-10T05:26:38.669Z,98171.13
2023-01-10T05:29:06.002Z,98238.84
2023-01-10T05:31:32.748Z,98158.78
2023-01-10T05:33:59.527Z,98191.69
2023-01-10T05:36:26.663Z,98092.94
2023-01-10T05:38:55.407Z,98178.69
2023-01-10T05:41:22.033Z,98210.19
2023-01-10T05:43:49.877Z,98202.94
2023-01-10T05:46:16.695Z,98190.94
2023-01-10T05:48:43.454Z,98212.03
2023-01-10T05:51:10.082Z,98222.25
2023-01-10T05:53:37.110Z,98206.06
2023-01-10T05:56:03.823Z,98167.16
2023-01-10T05:58:30.684Z,98195.63
2023-01-10T06:00:58.556Z,98236.19
2023-01-10T06:03:25.522Z,98138.19
2023-01-10T06:05:53.549Z,98138.06
2023-01-10T06:08:20.666Z,98230.91
2023-01-10T06:10:47.246Z,98264.09
2023-01-10T06:13:14.249Z,98245.44
2023-01-10T06:15:41.180Z,98143.97
2023-01-10T06:18:11.944Z,98339.09
2023-01-10T06:20:39.821Z,98224.69
2023-01-10T06:23:06.587Z,98245.22
2023-01-10T06:25:35.201Z,98258.03
2023-01-10T06:28:01.853Z,98205.53
2023-01-10T06:30:28.671Z,98352.09
2023-01-10T06:33:00.876Z,98310.72
2023-01-10T06:35:28.741Z,98309.53
2023-01-10T06:37:55.780Z,98274.53
2023-01-10T06:40:22.664Z,98330.88
2023-01-10T06:42:49.283Z,98311.31
2023-01-10T06:45:16.250Z,98290.03
2023-01-10T06:47:42.843Z,98336.88
2023-01-10T06:50:10.414Z,98287.47
2023-01-10T06:52:37.115Z,98361.78
2023-01-10T06:55:04.593Z,98300.13
2023-01-10T06:57:31.177Z,98342.16
2023-01-10T06:59:57.989Z,98329.75
2023-01-10T07:02:25.007Z,98322.22
2023-01-10T07:04:51.723Z,98281.22
2023-01-10T07:07:18.417Z,98355.78
2023-01-10T07:09:45.027Z,98338.66
2023-01-10T07:12:11.677Z,98370.09
2023-01-10T07:14:38.475Z,98376.88
2023-01-10T07:17:05.061Z,98106.84
2023-01-10T07:19:31.769Z,98396.06
2023-01-10T07:21:58.478Z,98310.41
2023-01-10T07:24:25.154Z,98385.84
2023-01-10T07:26:54.918Z,98360.25
2023-01-10T07:29:22.228Z,98124.69
2023-01-10T07:31:48.819Z,98421.00
2023-01-10T07:34:15.672Z,98439.19
2023-01-10T07:36:42.289Z,98331.22
2023-01-10T07:39:08.937Z,98446.47
2023-01-10T07:41:35.559Z,98369.31
2023-01-10T07:44:03.176Z,98380.00
2023-01-10T07:46:29.832Z,98366.00
2023-01-10T07:48:56.484Z,98381.66
2023-01-10T07:51:23.136Z,98399.19
2023-01-10T07:53:49.802Z,98424.81
2023-01-10T07:56:16.437Z,98440.19
2023-01-10T07:58:43.522Z,98445.66
2023-01-10T08:01:10.134Z,98343.66
2023-01-10T08:03:37.033Z,98442.94
2023-01-10T08:06:06.162Z,98354.19
2023-01-10T08:08:34.211Z,98453.97
2023-01-10T08:11:01.081Z,98500.97
2023-01-10T08:13:28.663Z,98510.41
2023-01-10T08:15:55.350Z,98453.59
2023-01-10T08:18:23.632Z,98407.59
2023-01-10T08:20:54.418Z,98503.41
2023-01-10T08:23:21.492Z,98513.72
2023-01-10T08:25:48.373Z,98408.66
2023-01-10T08:28:15.169Z,98334.38
2023-01-10T08:30:41.800Z,98349.03
2023-01-10T08:33:09.777Z,98506.91
2023-01-10T08:35:41.121Z,98510.78
2023-01-10T08:38:08.527Z,98533.38
2023-01-10T08:40:35.169Z,98427.25
2023-01-10T08:43:05.161Z,98435.13
2023-01-10T08:45:32.162Z,98503.41
2023-01-10T08:47:58.836Z,98508.63
2023-01-10T08:50:26.469Z,98522.53
2023-01-10T08:52:53.165Z,98455.78
2023-01-10T08:55:20.264Z,98412.47
2023-01-10T08:57:46.905Z,98507.66
2023-01-10T09:00:14.060Z,98534.63
2023-01-10T09:02:41.088Z,98562.88
2023-01-10T09:05:18.563Z,98469.50
2023-01-10T09:07:53.443Z,98465.78
2023-01-10T09:10:20.267Z,98390.66
2023-01-10T09:12:46.933Z,98528.56
2023-01-10T09:15:13.516Z,98516.75
2023-01-10T09:17:40.422Z,98462.06
2023-01-10T09:20:07.823Z,98560.06
2023-01-10T09:22:34.406Z,98481.47
2023-01-10T09:25:01.032Z,98492.41
2023-01-10T09:27:27.728Z,98520.50
2023-01-10T09:29:54.349Z,98445.53
2023-01-10T09:32:21.085Z,98378.09
2023-01-10T09:34:47.664Z,98562.66
2023-01-10T09:37:14.807Z,98507.94
2023-01-10T09:39:41.437Z,98482.03
2023-01-10T09:42:49.212Z,98525.97
2023-01-10T09:45:30.113Z,98593.63
2023-01-10T09:48:06.053Z,98614.13
2023-01-10T09:50:57.862Z,98466.41
2023-01-10T09:53:30.751Z,98493.31
2023-01-10T09:55:59.298Z,98567.19
2023-01-10T09:58:29.201Z,98580.91
2023-01-10T10:01:04.736Z,98569.38
2023-01-10T10:04:09.002Z,98630.47
2023-01-10T10:06:35.798Z,98585.31
2023-01-10T10:09:04.863Z,98588.91
2023-01-10T10:12:00.987Z,98619.66
2023-01-10T10:14:43.795Z,98622.03
2023-01-10T10:17:40.731Z,98618.09
2023-01-10T10:20:32.148Z,98503.16
2023-01-10T10:23:29.626Z,98520.66
2023-01-10T10:26:02.693Z,98610.31
2023-01-10T10:28:37.346Z,98616.78
2023-01-10T10:31:21.042Z,98612.47
2023-01-10T10:33:54.573Z,98612.75
2023-01-10T10:36:40.792Z,98553.75
2023-01-10T10:39:15.814Z,98613.13
2023-01-10T10:41:46.299Z,98566.81
2023-01-10T10:44:30.422Z,98587.25
2023-01-10T10:46:59.999Z,98550.53
2023-01-10T10:49:32.639Z,98603.59
2023-01-10T10:52:02.653Z,98606.22
2023-01-10T10:54:31.079Z,98493.72
2023-01-10T10:56:57.834Z,98446.97
2023-01-10T10:59:24.490Z,98506.59
2023-01-10T11:01:51.312Z,98504.53
2023-01-10T11:04:22.073Z,98600.09
2023-01-10T11:06:49.316Z,98607.59
2023-01-10T11:09:27.819Z,98479.63
2023-01-10T11:11:55.057Z,98564.94
2023-01-10T11:14:54.175Z,98605.81
2023-01-10T11:17:29.927Z,98614.06
2023-01-10T11:20:14.164Z,98620.00
2023-01-10T11:22:49.230Z,98582.34
2023-01-10T11:25:18.502Z,98630.22
2023-01-10T11:27:49.906Z,98566.72
2023-01-10T11:30:23.850Z,98543.69
2023-01-10T11:33:00.635Z,98632.25
2023-01-10T11:35:39.142Z,98630.22
2023-01-10T11:38:18.992Z,98585.69
2023-01-10T11:41:03.198Z,98635.13
2023-01-10T11:43:39.323Z,98565.03
2023-01-10T11:46:24.853Z,98628.63
2023-01-10T11:49:12.538Z,98517.88
2023-01-10T11:51:52.500Z,98426.56
2023-01-10T11:54:26.339Z,98626.06
2023-01-10T11:56:57.850Z,98631.59
2023-01-10T11:59:26.194Z,98544.03
2023-01-10T12:02:03.831Z,98579.66
2023-01-10T12:04:34.357Z,98495.38
2023-01-10T12:07:09.144Z,98462.66
2023-01-10T12:09:38.375Z,98633.38
2023-01-10T12:12:14.261Z,98509.59
2023-01-10T12:14:41.095Z,98575.53
2023-01-10T12:17:17.590Z,98619.75
2023-01-10T12:19:44.580Z,98460.13
2023-01-10T12:22:15.075Z,98527.63
2023-01-10T12:24:45.825Z,98542.41
2023-01-10T12:27:15.326Z,98576.47
2023-01-10T12:29:47.660Z,98529.03
2023-01-10T12:32:21.533Z,98611.50
2023-01-10T12:34:56.629Z,98569.78
2023-01-10T12:37:59.294Z,98536.34
2023-01-10T12:40:45.048Z,98605.09
2023-01-10T12:43:38.964Z,98619.28
2023-01-10T12:46:29.746Z,98562.56
2023-01-10T12:49:18.224Z,98532.72
2023-01-10T12:51:48.059Z,98563.72
2023-01-10T12:54:26.647Z,98640.56
2023-01-10T12:56:54.879Z,98637.47
2023-01-10T12:59:43.076Z,98636.53
2023-01-10T13:02:21.615Z,98595.75
2023-01-10T13:04:55.916Z,98638.91
2023-01-10T13:07:27.712Z,98573.06
2023-01-10T13:09:54.825Z,98617.63
2023-01-10T13:12:33.746Z,98371.91
2023-01-10T13:15:21.930Z,98654.66
2023-01-10T13:17:54.718Z,98573.69
2023-01-10T13:20:21.360Z,98652.69
2023-01-10T13:22:50.280Z,98594.56
2023-01-10T13:25:26.940Z,98597.59
2023-01-10T13:28:02.069Z,98656.09
2023-01-10T13:30:41.780Z,98573.19
2023-01-10T13:33:25.682Z,98591.94
2023-01-10T13:35:56.764Z,98601.22
2023-01-10T13:38:47.715Z,98566.41
2023-01-10T13:41:14.630Z,98559.66
2023-01-10T13:44:01.731Z,98657.31
2023-01-10T13:46:31.655Z,98650.16
2023-01-10T13:48:58.239Z,98650.94
2023-01-10T13:51:27.765Z,98566.63
2023-01-10T13:54:25.351Z,98633.56
2023-01-10T13:56:53.477Z,98593.38
2023-01-10T13:59:23.609Z,98638.75
2023-01-10T14:01:53.494Z,98561.50
2023-01-10T14:04:21.539Z,98572.44
2023-01-10T14:07:13.114Z,98606.28
2023-01-10T14:09:43.975Z,98635.34
2023-01-10T14:12:24.716Z,98610.44
2023-01-10T14:14:58.631Z,98572.81
2023-01-10T14:17:29.037Z,98594.03
2023-01-10T14:20:03.613Z,98555.78
2023-01-10T14:22:33.976Z,98583.31
2023-01-10T14:25:04.217Z,98563.78
2023-01-10T14:27:57.741Z,98640.81
2023-01-10T14:30:33.289Z,98643.53
2023-01-10T14:33:25.312Z,98596.84
2023-01-10T14:35:58.419Z,98643.97
2023-01-10T14:38:29.293Z,98579.66
2023-01-10T14:41:01.586Z,98620.03
2023-01-10T14:43:43.347Z,98615.06
2023-01-10T14:46:17.647Z,98585.84
2023-01-10T14:48:51.519Z,98570.56
2023-01-10T14:51:24.749Z,98639.50
2023-01-10T14:54:12.545Z,98639.13
2023-01-10T14:56:39.206Z,98596.53
2023-01-10T14:59:26.106Z,98511.91
2023-01-10T15:02:00.846Z,98616.66
2023-01-10T15:04:30.293Z,98596.69
2023-01-10T15:07:09.798Z,98550.78
2023-01-10T15:09:38.375Z,98582.47
2023-01-10T15:12:08.103Z,98576.38
2023-01-10T15:14:36.734Z,98563.66
2023-01-10T15:17:05.319Z,98601.88
2023-01-10T15:19:35.670Z,98527.84
2023-01-10T15:22:02.708Z,98525.38
2023-01-10T15:24:36.893Z,98596.69
2023-01-10T15:27:07.001Z,98525.03
2023-01-10T15:29:33.837Z,98419.56
2023-01-10T15:32:10.506Z,98604.66
2023-01-10T15:34:38.699Z,98453.31
2023-01-10T15:37:07.277Z,98474.66
2023-01-10T15:39:40.549Z,98603.75
2023-01-10T15:42:12.322Z,98515.22
2023-01-10T15:44:40.612Z,98603.94
2023-01-10T15:47:39.059Z,98524.84
2023-01-10T15:50:26.391Z,98541.88
2023-01-10T15:52:56.172Z,98561.53
2023-01-10T15:55:39.810Z,98559.38
2023-01-10T15:58:31.502Z,98548.69
2023-01-10T16:01:00.039Z,98581.06
2023-01-10T16:03:29.312Z,98516.88
2023-01-10T16:05:58.198Z,98545.56
2023-01-10T16:08:33.395Z,98549.44
2023-01-10T16:11:03.267Z,98541.19
2023-01-10T16:13:30.063Z,98558.13
2023-01-10T16:15:58.862Z,98509.53
2023-01-10T16:18:26.354Z,98528.50
2023-01-10T16:20:59.877Z,98547.72
2023-01-10T16:23:32.535Z,98552.66
2023-01-10T16:26:01.616Z,98569.94
2023-01-10T16:28:28.540Z,98558.16
2023-01-10T16:30:55.322Z,98592.34
2023-01-10T16:33:26.337Z,98564.16
2023-01-10T16:35:57.987Z,98447.53
2023-01-10T16:38:27.500Z,98404.47
2023-01-10T16:40:58.027Z,98500.09
2023-01-10T16:43:25.404Z,98391.56
2023-01-10T16:45:54.724Z,98508.41
2023-01-10T16:48:21.448Z,98484.28
2023-01-10T16:50:48.488Z,98562.94
2023-01-10T16:53:18.246Z,98397.31
2023-01-10T16:55:48.465Z,98559.75
2023-01-10T16:58:19.205Z,98510.88
2023-01-10T17:00:50.516Z,98544.09
2023-01-10T17:03:21.642Z,98560.97
2023-01-10T17:05:51.683Z,98453.16
2023-01-10T17:08:23.730Z,98552.56
2023-01-10T17:10:53.777Z,98557.41
2023-01-10T17:13:27.727Z,98499.16
2023-01-10T17:15:54.534Z,98547.03
2023-01-10T17:18:21.209Z,98219.41
2023-01-10T17:20:48.066Z,98371.81
2023-01-10T17:23:14.677Z,98425.31
2023-01-10T17:25:41.964Z,98542.22
2023-01-10T17:28:11.706Z,98379.91
2023-01-10T17:30:42.731Z,98524.09
2023-01-10T17:33:09.996Z,98461.25
2023-01-10T17:35:44.707Z,98520.41
2023-01-10T17:38:14.490Z,98526.13
2023-01-10T17:40:46.485Z,98436.28
2023-01-10T17:43:14.967Z,98420.22
2023-01-10T17:45:43.556Z,98456.72
2023-01-10T17:48:13.030Z,98517.47
2023-01-10T17:50:40.923Z,98489.13
2023-01-10T17:53:07.819Z,98301.09
2023-01-10T17:55:34.700Z,98429.81
2023-01-10T17:58:01.415Z,98439.03
2023-01-10T18:00:28.509Z,98482.38
2023-01-10T18:02:55.394Z,98167.66
2023-01-10T18:05:22.057Z,98475.53
2023-01-10T18:07:48.758Z,98389.38
2023-01-10T18:10:15.468Z,98458.81
2023-01-10T18:12:43.653Z,98405.41
2023-01-10T18:15:11.889Z,98492.53
2023-01-10T18:17:39.179Z,98402.09
2023-01-10T18:20:06.693Z,98401.16
2023-01-10T18:22:33.487Z,98417.03
2023-01-10T18:25:00.545Z,98387.19
2023-01-10T18:27:27.962Z,98493.06
2023-01-10T18:29:55.801Z,98412.38
2023-01-10T18:32:23.929Z,98496.50
2023-01-10T18:34:50.737Z,98479.91
2023-01-10T18:37:18.530Z,98498.84
2023-01-10T18:39:45.734Z,98489.19
2023-01-10T18:42:13.386Z,98388.94
2023-01-10T18:44:40.599Z,98393.63
2023-01-10T18:47:07.846Z,98461.66
2023-01-10T18:49:34.732Z,98429.97
2023-01-10T18:52:02.468Z,98379.25
2023-01-10T18:54:29.149Z,98414.19
2023-01-10T18:56:55.898Z,98361.69
2023-01-10T18:59:22.780Z,98414.47
2023-01-10T19:01:50.898Z,98321.53
2023-01-10T19:04:17.574Z,98323.28
2023-01-10T19:06:47.155Z,98472.88
2023-01-10T19:09:13.896Z,98361.13
2023-01-10T19:15:39.772Z,98220.28
2023-01-10T19:18:14.800Z,98378.13
2023-01-10T19:20:43.643Z,98447.41
2023-01-10T19:23:11.518Z,98441.75
2023-01-10T19:25:40.638Z,97896.59
2023-01-10T19:28:07.330Z,98249.03
2023-01-10T19:30:34.100Z,98393.88
2023-01-10T19:33:00.988Z,98106.88
2023-01-10T19:35:28.322Z,98320.28
2023-01-10T19:37:55.025Z,98390.19
2023-01-10T19:40:29.860Z,98091.00
2023-01-10T19:43:20.138Z,98052.84
2023-01-10T19:45:48.451Z,97809.22
2023-01-10T19:48:17.090Z,98213.97
2023-01-10T19:50:45.035Z,98436.13
2023-01-10T19:53:16.184Z,98108.25
2023-01-10T19:55:43.030Z,98177.81
2023-01-10T19:58:09.652Z,98369.31
2023-01-10T20:00:36.469Z,98303.00
2023-01-10T20:03:03.329Z,98330.41
2023-01-10T20:05:30.090Z,98320.28
2023-01-10T20:07:57.066Z,98415.00
2023-01-10T20:10:25.657Z,98156.16
2023-01-10T20:12:53.471Z,98258.03
2023-01-10T20:15:20.173Z,98327.91
2023-01-10T20:17:47.677Z,98352.00
2023-01-10T20:20:14.818Z,98343.25
2023-01-10T20:22:41.407Z,98369.63
2023-01-10T20:25:08.673Z,98376.75
2023-01-10T20:27:35.339Z,98343.56
2023-01-10T20:30:04.150Z,98424.19
2023-01-10T20:32:31.264Z,98111.50
2023-01-10T20:35:00.223Z,98083.84
2023-01-10T20:37:27.703Z,98393.19
2023-01-10T20:39:54.524Z,98314.25
2023-01-10T20:42:21.136Z,98068.13
2023-01-10T20:44:48.019Z,98374.50
2023-01-10T20:47:14.782Z,98413.22
2023-01-10T20:49:41.488Z,98368.25
2023-01-10T20:52:08.067Z,98320.44
2023-01-10T20:54:34.961Z,98272.19
2023-01-10T20:57:04.830Z,98276.44
2023-01-10T20:59:31.679Z,98130.31
2023-01-10T21:01:58.445Z,98329.47
2023-01-10T21:04:25.127Z,98370.56
2023-01-10T21:06:51.816Z,98369.06
2023-01-10T21:09:18.817Z,98300.56
2023-01-10T21:11:59.851Z,98256.44
2023-01-10T21:14:31.014Z,98366.59
2023-01-10T21:16:57.596Z,98294.22
2023-01-10T21:19:24.271Z,98233.94
2023-01-10T21:21:51.068Z,98345.75
2023-01-10T21:24:17.769Z,98038.75
2023-01-10T21:26:46.058Z,98206.00
2023-01-10T21:29:13.491Z,98222.44
2023-01-10T21:31:40.201Z,98279.38
2023-01-10T21:34:06.954Z,98212.88
2023-01-10T21:36:33.633Z,98263.00
2023-01-10T21:39:00.308Z,98216.72
2023-01-10T21:41:29.018Z,98209.56
2023-01-10T21:43:58.167Z,98234.19
2023-01-10T21:46:24.988Z,98308.00
2023-01-10T21:48:52.000Z,98199.25
2023-01-10T21:51:18.682Z,98030.28
2023-01-10T21:53:45.544Z,97896.56
2023-01-10T21:56:12.299Z,98166.00
2023-01-10T21:58:39.269Z,98295.81
2023-01-10T22:01:06.149Z,98195.28
2023-01-10T22:03:32.926Z,98162.34
2023-01-10T22:06:01.726Z,98230.47
2023-01-10T22:08:28.636Z,98151.75
2023-01-10T22:10:55.275Z,98152.19
2023-01-10T22:13:25.261Z,98201.75
2023-01-10T22:16:01.748Z,98201.31
2023-01-10T22:18:30.495Z,98268.84
2023-01-10T22:20:57.991Z,98277.13
2023-01-10T22:23:25.156Z,97987.91
2023-01-10T22:26:16.598Z,97709.94
2023-01-10T22:28:45.716Z,97888.38
2023-01-10T22:31:12.733Z,98098.66
2023-01-10T22:33:40.213Z,97843.97
2023-01-10T22:36:28.247Z,98092.75
2023-01-10T22:39:28.269Z,98027.78
2023-01-10T22:41:58.165Z,97678.78
2023-01-10T22:44:26.826Z,97992.34
2023-01-10T22:46:55.771Z,98129.66
2023-01-10T22:49:23.036Z,98098.53
2023-01-10T22:51:50.655Z,98106.22
2023-01-10T22:54:17.785Z,98201.00
2023-01-10T22:56:46.194Z,98240.03
2023-01-10T22:59:16.026Z,98236.44
2023-01-10T23:01:42.767Z,97889.84
2023-01-10T23:04:10.543Z,98153.69
2023-01-10T23:06:37.494Z,98182.44
2023-01-10T23:09:04.233Z,98126.31
2023-01-10T23:11:31.016Z,98176.81
2023-01-10T23:13:57.676Z,98066.56
2023-01-10T23:16:25.684Z,98214.94
2023-01-10T23:18:52.328Z,98138.22
2023-01-10T23:21:19.360Z,98142.34
2023-01-10T23:23:46.097Z,98165.78
2023-01-10T23:26:13.943Z,98183.31
2023-01-10T23:28:48.884Z,98158.25
2023-01-10T23:31:18.847Z,98064.53
2023-01-10T23:33:45.580Z,98147.09
2023-01-10T23:36:12.994Z,98084.69
2023-01-10T23:38:40.000Z,98115.88
2023-01-10T23:41:06.845Z,98106.66
2023-01-10T23:43:33.640Z,98017.22
2023-01-10T23:46:00.676Z,98066.69
2023-01-10T23:48:28.311Z,98165.75
2023-01-10T23:50:55.147Z,98168.56
2023-01-10T23:53:22.223Z,98174.25
2023-01-10T23:55:49.238Z,98056.34
2023-01-10T23:58:16.006Z,98120.63
